MSC Silvia — 3FFR5 — position and weather

sailwx.info

Track history (hours):
 
Tides and Currents Weather Stations Pressure Air Temp Water Temp Dewpoint Dewpoint Depression Visibility Wind Speed Wind Dir Waves Ship Positions

MSC Silvia

Last reported at 2018-Feb-19 22:09 UTC. Time now 2018-Feb-21 03:23 UTC.
Position N 38°39' W 123°48'.

Length 300 m; draft 9.5 m.

Type: Ship (hazmat cat A). MMSI: 374128000.

Date/timePositionNaut miles runAvg speedWind from/ knotsBaromVisibWave heightAir tempDewpointWater temp
2018-Feb-19 22:09N 38°39' W 123°48'3 9.2
2018-Feb-19 21:46N 38°36' W 123°45'3 9.8
2018-Feb-19 21:28N 38°33' W 123°43'510.3
2018-Feb-19 20:56N 38°29' W 123°39'4 9.5
2018-Feb-19 20:30N 38°26' W 123°36'5 9.9
2018-Feb-19 20:00N 38°22' W 123°32'4 8.8
2018-Feb-19 19:30N 38°18' W 123°29'4 9.0
2018-Feb-19 19:00N 38°15' W 123°25'5 8.9
2018-Feb-19 18:30N 38°11' W 123°22'5 9.6
2018-Feb-19 18:00N 38°07' W 123°18'4 9.0
2018-Feb-19 17:30N 38°04' W 123°15'5 9.1
2018-Feb-19 17:00N 38°00' W 123°11'5 9.2
2018-Feb-19 16:30N 37°57' W 123°06'5 9.7
2018-Feb-19 16:00N 37°55' W 123°01'5 9.3
2018-Feb-19 15:31N 37°53' W 122°56'5 9.5
2018-Feb-19 15:00N 37°50' W 122°51'5 9.6
2018-Feb-19 14:30N 37°48' W 122°46'5 9.8
2018-Feb-19 14:01N 37°44' W 122°42'612.7
2018-Feb-19 13:30N 37°47' W 122°34'714.7
2018-Feb-19 13:01N 37°51' W 122°26'510.2
2018-Feb-19 12:30N 37°47' W 122°22'2 3.0
2018-Feb-19 11:58N 37°46' W 122°21'0 0.1
2018-Feb-19 11:28N 37°45' W 122°21'0 0.0
2018-Feb-19 10:58N 37°46' W 122°21'0 0.2
2018-Feb-19 10:28N 37°45' W 122°21'0 0.0
2018-Feb-19 10:01N 37°45' W 122°21'0 0.0
2018-Feb-19 09:31N 37°45' W 122°21'0 0.0
2018-Feb-19 08:58N 37°45' W 122°21'0 0.0
2018-Feb-19 08:28N 37°45' W 122°21'0 0.1
2018-Feb-19 07:58N 37°45' W 122°21'0 0.0
2018-Feb-19 07:31N 37°45' W 122°21'0 0.0
2018-Feb-19 07:00N 37°45' W 122°21'0 0.0
2018-Feb-19 06:30N 37°45' W 122°21'0 0.0
2018-Feb-19 06:00N 37°45' W 122°21'0 0.0
2018-Feb-19 05:27N 37°45' W 122°21'0 0.0
2018-Feb-19 05:00N 37°45' W 122°21'0 0.0
2018-Feb-19 04:28N 37°45' W 122°21'0 0.0
2018-Feb-19 04:00N 37°45' W 122°21'0 0.0
2018-Feb-19 03:28N 37°45' W 122°21'0 0.1
2018-Feb-19 02:57N 37°46' W 122°21'0 0.0
2018-Feb-19 02:28N 37°46' W 122°21'0 0.0
2018-Feb-19 02:01N 37°46' W 122°21'0 0.0
2018-Feb-19 01:28N 37°46' W 122°21'0 0.0
2018-Feb-19 01:01N 37°46' W 122°21'0 0.0
2018-Feb-19 00:28N 37°46' W 122°21'0 0.0
2018-Feb-18 23:58N 37°46' W 122°21'0 0.1
2018-Feb-18 23:31N 37°46' W 122°21'0 0.0
2018-Feb-18 23:00N 37°46' W 122°21'0 0.0
2018-Feb-18 22:28N 37°45' W 122°21'0 0.2
2018-Feb-18 22:01N 37°46' W 122°21'0 0.0
2018-Feb-18 21:28N 37°46' W 122°21'0 0.0
2018-Feb-18 21:01N 37°46' W 122°21'0 0.0
2018-Feb-18 20:31N 37°46' W 122°21'0 0.0
2018-Feb-18 19:57N 37°46' W 122°21'0 0.0
2018-Feb-18 19:30N 37°46' W 122°21'0 0.0
2018-Feb-18 19:00N 37°46' W 122°21'0 0.0
2018-Feb-18 18:30N 37°46' W 122°21'0 0.0
2018-Feb-18 18:01N 37°46' W 122°21'0 0.0
2018-Feb-18 17:30N 37°46' W 122°21'0 0.0
2018-Feb-18 17:00N 37°46' W 122°21'0 0.0
2018-Feb-18 16:30N 37°46' W 122°21'0 0.0
2018-Feb-18 16:01N 37°46' W 122°21'0 0.1
2018-Feb-18 15:31N 37°46' W 122°21'0 0.1
2018-Feb-18 15:01N 37°46' W 122°21'0 0.1
2018-Feb-18 14:30N 37°46' W 122°21'0 0.0
2018-Feb-18 14:01N 37°46' W 122°21'0 0.0
2018-Feb-18 13:30N 37°46' W 122°21'0 0.0
2018-Feb-18 13:01N 37°46' W 122°21'0 0.1
2018-Feb-18 12:31N 37°46' W 122°21'0 0.1
2018-Feb-18 12:00N 37°46' W 122°21'0 0.1
2018-Feb-18 11:31N 37°46' W 122°21'0 0.1
2018-Feb-18 11:00N 37°46' W 122°21'0 0.1
2018-Feb-18 10:30N 37°46' W 122°21'0 0.0
2018-Feb-18 10:00N 37°46' W 122°21'0 0.0
2018-Feb-18 09:30N 37°46' W 122°21'0 0.1
2018-Feb-18 09:01N 37°46' W 122°21'0 0.0
2018-Feb-18 08:30N 37°46' W 122°21'0 0.0
2018-Feb-18 08:00N 37°46' W 122°21'0 0.0
2018-Feb-18 07:30N 37°46' W 122°21'0 0.0
2018-Feb-18 07:00N 37°46' W 122°21'0 0.1
2018-Feb-18 06:30N 37°46' W 122°21'0 0.0
2018-Feb-18 05:57N 37°46' W 122°21'0 0.0
2018-Feb-18 05:30N 37°46' W 122°21'0 0.0
2018-Feb-18 05:00N 37°46' W 122°21'0 0.1
2018-Feb-18 04:30N 37°46' W 122°21'0 0.1
2018-Feb-18 04:00N 37°46' W 122°21'0 0.2
2018-Feb-18 03:30N 37°46' W 122°21'0 0.0
2018-Feb-18 03:00N 37°46' W 122°21'0 0.0
2018-Feb-18 02:30N 37°46' W 122°21'0 0.1
2018-Feb-18 02:01N 37°46' W 122°21'0 0.0
2018-Feb-18 01:31N 37°46' W 122°21'0 0.0
2018-Feb-18 01:00N 37°46' W 122°21'0 0.0
2018-Feb-18 00:31N 37°46' W 122°21'0 0.0
2018-Feb-18 00:00N 37°46' W 122°21'0 0.0
2018-Feb-17 23:30N 37°46' W 122°21'0 0.0
2018-Feb-17 23:00N 37°46' W 122°21'0 0.1
2018-Feb-17 22:30N 37°46' W 122°21'0 0.0
2018-Feb-17 22:00N 37°46' W 122°21'0 0.1
2018-Feb-17 21:30N 37°46' W 122°21'0 0.1
2018-Feb-17 21:00N 37°46' W 122°21'0 0.1
2018-Feb-17 20:30N 37°46' W 122°21'0 0.0
2018-Feb-17 20:00N 37°46' W 122°21'0 0.0
2018-Feb-17 19:30N 37°46' W 122°21'0 0.1
2018-Feb-17 19:00N 37°46' W 122°21'0 0.0
2018-Feb-17 18:27N 37°46' W 122°21'0 0.1
2018-Feb-17 18:00N 37°46' W 122°21'0 0.0
2018-Feb-17 17:30N 37°46' W 122°21'0 0.0
2018-Feb-17 17:00N 37°46' W 122°21'0 0.0
2018-Feb-17 16:30N 37°46' W 122°21'0 0.3
2018-Feb-17 16:00N 37°46' W 122°21'0 0.1
2018-Feb-17 15:30N 37°46' W 122°21'0 0.0
2018-Feb-17 15:00N 37°46' W 122°21'0 0.0
2018-Feb-17 14:30N 37°46' W 122°21'0 0.0
2018-Feb-17 14:00N 37°46' W 122°21'0 0.1
2018-Feb-17 13:30N 37°46' W 122°21'0 0.1
2018-Feb-17 13:00N 37°46' W 122°21'0 0.1
2018-Feb-17 12:30N 37°46' W 122°21'1 1.5
2018-Feb-17 12:00N 37°46' W 122°21'2 4.3
2018-Feb-17 11:30N 37°48' W 122°20'0 0.1
2018-Feb-17 10:59N 37°48' W 122°19'0 0.0
2018-Feb-17 10:29N 37°48' W 122°19'0 0.0
2018-Feb-17 09:59N 37°48' W 122°19'0 0.0
2018-Feb-17 09:29N 37°48' W 122°19'0 0.0
2018-Feb-17 08:59N 37°48' W 122°19'0 0.0
2018-Feb-17 08:29N 37°48' W 122°19'0 0.0
2018-Feb-17 07:59N 37°48' W 122°19'0 0.0
2018-Feb-17 07:29N 37°48' W 122°19'0 0.0
2018-Feb-17 06:59N 37°48' W 122°19'0 0.0
2018-Feb-17 06:29N 37°48' W 122°19'0 0.0
2018-Feb-17 05:59N 37°48' W 122°19'0 0.0
2018-Feb-17 05:29N 37°48' W 122°19'0 0.0
2018-Feb-17 04:59N 37°48' W 122°19'0 0.0
2018-Feb-17 04:29N 37°48' W 122°19'0 0.0
2018-Feb-17 03:59N 37°48' W 122°19'0 0.0
2018-Feb-17 03:29N 37°48' W 122°19'0 0.0
2018-Feb-17 02:59N 37°48' W 122°19'0 0.0
2018-Feb-17 02:29N 37°48' W 122°19'0 0.0
2018-Feb-17 01:59N 37°48' W 122°19'0 0.0
2018-Feb-17 01:29N 37°48' W 122°19'0 0.0
2018-Feb-17 00:59N 37°48' W 122°19'0 0.0
2018-Feb-17 00:29N 37°48' W 122°19'0 0.0
2018-Feb-16 23:56N 37°48' W 122°19'0 0.0
2018-Feb-16 23:29N 37°48' W 122°19'0 0.0
2018-Feb-16 22:59N 37°48' W 122°19'0 0.0
2018-Feb-16 22:29N 37°48' W 122°19'0 0.0
2018-Feb-16 21:59N 37°48' W 122°19'0 0.0
2018-Feb-16 21:29N 37°48' W 122°19'0 0.0
2018-Feb-16 20:59N 37°48' W 122°19'0 0.0
2018-Feb-16 20:29N 37°48' W 122°19'0 0.0
2018-Feb-16 19:59N 37°48' W 122°19'0 0.0
2018-Feb-16 19:29N 37°48' W 122°19'0 0.0
2018-Feb-16 18:59N 37°48' W 122°19'0 0.0
2018-Feb-16 18:29N 37°48' W 122°19'0 0.0
2018-Feb-16 17:59N 37°48' W 122°19'0 0.0
2018-Feb-16 17:29N 37°48' W 122°19'0 0.0
2018-Feb-16 16:59N 37°48' W 122°19'0 0.0
2018-Feb-16 16:29N 37°48' W 122°19'0 0.0
2018-Feb-16 15:59N 37°48' W 122°19'0 0.0
2018-Feb-16 15:29N 37°48' W 122°19'0 0.0
2018-Feb-16 14:59N 37°48' W 122°19'0 0.0
2018-Feb-16 14:29N 37°48' W 122°19'0 0.0
2018-Feb-16 13:59N 37°48' W 122°19'0 0.0
2018-Feb-16 13:29N 37°48' W 122°19'0 0.0
2018-Feb-16 12:59N 37°48' W 122°19'0 0.0
2018-Feb-16 12:29N 37°48' W 122°19'0 0.0
2018-Feb-16 11:59N 37°48' W 122°19'0 0.0
2018-Feb-16 11:29N 37°48' W 122°19'0 0.0
2018-Feb-16 10:59N 37°48' W 122°19'0 0.0
2018-Feb-16 10:29N 37°48' W 122°19'0 0.0
2018-Feb-16 09:59N 37°48' W 122°19'0 0.0
2018-Feb-16 09:29N 37°48' W 122°19'0 0.9
2018-Feb-16 09:00N 37°48' W 122°19'1 2.6
2018-Feb-16 08:30N 37°48' W 122°17'2 4.0
2018-Feb-16 08:00N 37°48' W 122°20'4 8.5
2018-Feb-16 07:30N 37°49' W 122°25'612.9
2018-Feb-16 07:00N 37°47' W 122°33'714.2
2018-Feb-16 06:30N 37°44' W 122°41'4 8.1
2018-Feb-16 06:00N 37°40' W 122°40'5 9.3
2018-Feb-16 05:30N 37°36' W 122°40'713.2
2018-Feb-16 05:00N 37°29' W 122°40'613.0
2018-Feb-16 04:30N 37°23' W 122°40'612.8
2018-Feb-16 04:00N 37°16' W 122°40'510.7
2018-Feb-16 03:30N 37°11' W 122°40'815.7
2018-Feb-16 03:01N 37°03' W 122°36'815.9
2018-Feb-16 02:30N 36°56' W 122°33'815.4
2018-Feb-16 02:00N 36°49' W 122°29'815.4
2018-Feb-16 01:30N 36°42' W 122°25'815.4
2018-Feb-16 01:00N 36°35' W 122°22'8415.9
2018-Feb-15 19:42N 35°21' W 121°32'316.5
2018-Feb-15 19:30N 35°18' W 121°30'816.2
2018-Feb-15 19:00N 35°11' W 121°25'816.4
2018-Feb-15 18:30N 35°04' W 121°20'816.2
2018-Feb-15 18:00N 34°57' W 121°15'816.3
2018-Feb-15 17:30N 34°50' W 121°09'816.5
2018-Feb-15 17:00N 34°43' W 121°04'816.2
2018-Feb-15 16:30N 34°36' W 120°59'815.9
2018-Feb-15 16:00N 34°29' W 120°55'815.2
2018-Feb-15 15:30N 34°25' W 120°47'816.2
2018-Feb-15 14:59N 34°23' W 120°37'916.4
2018-Feb-15 14:27N 34°20' W 120°27'716.0
2018-Feb-15 14:00N 34°19' W 120°19'916.3
2018-Feb-15 13:29N 34°16' W 120°09'713.9
2018-Feb-15 12:58N 34°14' W 120°00'6 9.4
2018-Feb-15 12:21N 34°13' W 119°53'4 9.8
2018-Feb-15 11:57N 34°12' W 119°49'5 9.7
2018-Feb-15 11:29N 34°11' W 119°44'5 9.4
2018-Feb-15 11:00N 34°10' W 119°38'5 9.5
2018-Feb-15 10:30N 34°08' W 119°33'5 9.8
2018-Feb-15 10:00N 34°07' W 119°27'5 9.7
2018-Feb-15 09:27N 34°06' W 119°21'4 9.5
2018-Feb-15 09:00N 34°04' W 119°16'611.0
2018-Feb-15 08:29N 34°02' W 119°10'611.5
2018-Feb-15 08:00N 33°59' W 119°04'611.3
2018-Feb-15 07:29N 33°56' W 118°58'611.8
2018-Feb-15 07:00N 33°53' W 118°52'611.6
2018-Feb-15 06:30N 33°50' W 118°46'611.3
2018-Feb-15 06:00N 33°47' W 118°40'611.2
2018-Feb-15 05:30N 33°45' W 118°34'611.4
2018-Feb-15 05:00N 33°42' W 118°28'611.6
2018-Feb-15 04:30N 33°39' W 118°22'510.9
2018-Feb-15 04:00N 33°38' W 118°16'5 9.3
2018-Feb-15 03:30N 33°41' W 118°11'4 7.3
2018-Feb-15 03:00N 33°45' W 118°13'1 2.2
2018-Feb-15 02:30N 33°45' W 118°14'0 0.0
2018-Feb-15 02:00N 33°45' W 118°14'0 0.0
2018-Feb-15 01:30N 33°45' W 118°14'0 0.0
2018-Feb-15 01:00N 33°45' W 118°14'0 0.0
2018-Feb-15 00:30N 33°45' W 118°14'0 0.0
2018-Feb-15 00:00N 33°45' W 118°14'0 0.0
2018-Feb-14 23:30N 33°45' W 118°14'0 0.0
2018-Feb-14 23:00N 33°45' W 118°14'0 0.0
2018-Feb-14 22:30N 33°45' W 118°14'0 0.0
2018-Feb-14 22:00N 33°45' W 118°14'0 0.0
2018-Feb-14 21:30N 33°45' W 118°14'0 0.0
2018-Feb-14 21:00N 33°45' W 118°14'0 0.0
2018-Feb-14 20:30N 33°45' W 118°14'0 0.0
2018-Feb-14 20:00N 33°45' W 118°14'0 0.0
2018-Feb-14 19:30N 33°45' W 118°14'0 0.0
2018-Feb-14 19:00N 33°45' W 118°14'0 0.0
2018-Feb-14 18:30N 33°45' W 118°14'0 0.0
2018-Feb-14 18:00N 33°45' W 118°14'0 0.0
2018-Feb-14 17:30N 33°45' W 118°14'0 0.0
2018-Feb-14 16:57N 33°45' W 118°14'0 0.0
2018-Feb-14 16:30N 33°45' W 118°14'0 0.0
2018-Feb-14 16:00N 33°45' W 118°14'0 0.0
2018-Feb-14 15:30N 33°45' W 118°14'0 0.0
2018-Feb-14 15:00N 33°45' W 118°14'0 0.0
2018-Feb-14 14:30N 33°45' W 118°14'0 0.0
2018-Feb-14 14:00N 33°45' W 118°14'0 0.0
2018-Feb-14 13:27N 33°45' W 118°14'0 0.0
2018-Feb-14 13:00N 33°45' W 118°14'0 0.0
2018-Feb-14 12:30N 33°45' W 118°14'0 0.0
2018-Feb-14 12:00N 33°45' W 118°14'0 0.0
2018-Feb-14 11:30N 33°45' W 118°14'0 0.0
2018-Feb-14 11:00N 33°45' W 118°14'0 0.0
2018-Feb-14 10:30N 33°45' W 118°14'0 0.0
2018-Feb-14 09:51N 33°45' W 118°14'0 0.0
2018-Feb-14 09:15N 33°45' W 118°14'0 0.0
2018-Feb-14 09:00N 33°45' W 118°14'0 0.0
2018-Feb-14 08:21N 33°45' W 118°14'0 0.0
2018-Feb-14 07:57N 33°45' W 118°14'0 0.0
2018-Feb-14 07:27N 33°45' W 118°14'0 0.0
2018-Feb-14 07:00N 33°45' W 118°14'0 0.0
2018-Feb-14 06:30N 33°45' W 118°14'0 0.0
2018-Feb-14 06:00N 33°45' W 118°14'0 0.0
2018-Feb-14 05:24N 33°45' W 118°14'0 0.0
2018-Feb-14 05:00N 33°45' W 118°14'0 0.0
2018-Feb-14 04:30N 33°45' W 118°14'0 0.0
2018-Feb-14 03:48N 33°45' W 118°14'0 0.0
2018-Feb-14 03:30N 33°45' W 118°14'0 0.0
2018-Feb-14 02:57N 33°45' W 118°14'0 0.0
2018-Feb-14 02:21N 33°45' W 118°14'0 0.0
2018-Feb-14 02:00N 33°45' W 118°14'0 0.0
2018-Feb-14 01:24N 33°45' W 118°14'0 0.0
2018-Feb-14 01:00N 33°45' W 118°14'0 0.0
2018-Feb-14 00:30N 33°45' W 118°14'0 0.0
2018-Feb-13 23:57N 33°45' W 118°14'0 0.0
2018-Feb-13 23:30N 33°45' W 118°14'0 0.0
2018-Feb-13 23:00N 33°45' W 118°14'0 0.0
2018-Feb-13 22:30N 33°45' W 118°14'0 0.0
2018-Feb-13 22:00N 33°45' W 118°14'0 0.0
2018-Feb-13 21:30N 33°45' W 118°14'0 0.0
2018-Feb-13 21:00N 33°45' W 118°14'0 0.0
2018-Feb-13 20:30N 33°45' W 118°14'0 0.1
2018-Feb-13 20:00N 33°45' W 118°14'0 0.1
2018-Feb-13 19:30N 33°45' W 118°14'0 0.1
2018-Feb-13 19:00N 33°45' W 118°14'0 0.1
2018-Feb-13 18:30N 33°45' W 118°14'0 0.0
2018-Feb-13 18:00N 33°45' W 118°14'0 0.0
2018-Feb-13 17:27N 33°45' W 118°14'0 0.0
2018-Feb-13 17:00N 33°45' W 118°14'0 0.0
2018-Feb-13 16:30N 33°45' W 118°14'0 0.0
2018-Feb-13 16:00N 33°45' W 118°14'0 0.0
2018-Feb-13 15:27N 33°45' W 118°14'0 0.0
2018-Feb-13 15:00N 33°45' W 118°14'0 0.0
2018-Feb-13 14:29N 33°45' W 118°14'0 0.0
2018-Feb-13 13:59N 33°45' W 118°14'0 0.0
2018-Feb-13 13:30N 33°45' W 118°14'0 0.5
2018-Feb-13 13:00N 33°45' W 118°14'2 3.2
2018-Feb-13 12:30N 33°44' W 118°12'4 8.1
2018-Feb-13 12:00N 33°40' W 118°11'3 6.0
2018-Feb-13 11:29N 33°37' W 118°10'23 8.3
2018-Feb-13 08:42N 33°15' W 118°01'2 9.2
2018-Feb-13 08:30N 33°14' W 118°00'910.3
2018-Feb-13 07:38N 33°05' W 117°57'213.5
2018-Feb-13 07:30N 33°04' W 117°56'917.1
2018-Feb-13 07:00N 32°56' W 117°51'917.0
2018-Feb-13 06:30N 32°48' W 117°47'917.5
2018-Feb-13 06:00N 32°41' W 117°42'917.4
2018-Feb-13 05:30N 32°33' W 117°38'917.3
2018-Feb-13 05:00N 32°25' W 117°34'  
Track history (hours):
 
Tides and Currents Weather Stations Pressure Air Temp Water Temp Dewpoint Dewpoint Depression Visibility Wind Speed Wind Dir Waves Ship Positions

MSC Silvia

Last reported at 2018-Feb-19 22:09 UTC. Time now 2018-Feb-21 03:23 UTC.
Position N 38°39' W 123°48'.

Length 300 m; draft 9.5 m.

Type: Ship (hazmat cat A). MMSI: 374128000.

Date/timePositionNaut miles runAvg speedWind from/ knotsBaromVisibWave heightAir tempDewpointWater temp
2018-Feb-19 22:09N 38°39' W 123°48'3 9.2
2018-Feb-19 21:46N 38°36' W 123°45'3 9.8
2018-Feb-19 21:28N 38°33' W 123°43'510.3
2018-Feb-19 20:56N 38°29' W 123°39'4 9.5
2018-Feb-19 20:30N 38°26' W 123°36'5 9.9
2018-Feb-19 20:00N 38°22' W 123°32'4 8.8
2018-Feb-19 19:30N 38°18' W 123°29'4 9.0
2018-Feb-19 19:00N 38°15' W 123°25'5 8.9
2018-Feb-19 18:30N 38°11' W 123°22'5 9.6
2018-Feb-19 18:00N 38°07' W 123°18'4 9.0
2018-Feb-19 17:30N 38°04' W 123°15'5 9.1
2018-Feb-19 17:00N 38°00' W 123°11'5 9.2
2018-Feb-19 16:30N 37°57' W 123°06'5 9.7
2018-Feb-19 16:00N 37°55' W 123°01'5 9.3
2018-Feb-19 15:31N 37°53' W 122°56'5 9.5
2018-Feb-19 15:00N 37°50' W 122°51'5 9.6
2018-Feb-19 14:30N 37°48' W 122°46'5 9.8
2018-Feb-19 14:01N 37°44' W 122°42'612.7
2018-Feb-19 13:30N 37°47' W 122°34'714.7
2018-Feb-19 13:01N 37°51' W 122°26'510.2
2018-Feb-19 12:30N 37°47' W 122°22'2 3.0
2018-Feb-19 11:58N 37°46' W 122°21'0 0.1
2018-Feb-19 11:28N 37°45' W 122°21'0 0.0
2018-Feb-19 10:58N 37°46' W 122°21'0 0.2
2018-Feb-19 10:28N 37°45' W 122°21'0 0.0
2018-Feb-19 10:01N 37°45' W 122°21'0 0.0
2018-Feb-19 09:31N 37°45' W 122°21'0 0.0
2018-Feb-19 08:58N 37°45' W 122°21'0 0.0
2018-Feb-19 08:28N 37°45' W 122°21'0 0.1
2018-Feb-19 07:58N 37°45' W 122°21'0 0.0
2018-Feb-19 07:31N 37°45' W 122°21'0 0.0
2018-Feb-19 07:00N 37°45' W 122°21'0 0.0
2018-Feb-19 06:30N 37°45' W 122°21'0 0.0
2018-Feb-19 06:00N 37°45' W 122°21'0 0.0
2018-Feb-19 05:27N 37°45' W 122°21'0 0.0
2018-Feb-19 05:00N 37°45' W 122°21'0 0.0
2018-Feb-19 04:28N 37°45' W 122°21'0 0.0
2018-Feb-19 04:00N 37°45' W 122°21'0 0.0
2018-Feb-19 03:28N 37°45' W 122°21'0 0.1
2018-Feb-19 02:57N 37°46' W 122°21'0 0.0
2018-Feb-19 02:28N 37°46' W 122°21'0 0.0
2018-Feb-19 02:01N 37°46' W 122°21'0 0.0
2018-Feb-19 01:28N 37°46' W 122°21'0 0.0
2018-Feb-19 01:01N 37°46' W 122°21'0 0.0
2018-Feb-19 00:28N 37°46' W 122°21'0 0.0
2018-Feb-18 23:58N 37°46' W 122°21'0 0.1
2018-Feb-18 23:31N 37°46' W 122°21'0 0.0
2018-Feb-18 23:00N 37°46' W 122°21'0 0.0
2018-Feb-18 22:28N 37°45' W 122°21'0 0.2
2018-Feb-18 22:01N 37°46' W 122°21'0 0.0
2018-Feb-18 21:28N 37°46' W 122°21'0 0.0
2018-Feb-18 21:01N 37°46' W 122°21'0 0.0
2018-Feb-18 20:31N 37°46' W 122°21'0 0.0
2018-Feb-18 19:57N 37°46' W 122°21'0 0.0
2018-Feb-18 19:30N 37°46' W 122°21'0 0.0
2018-Feb-18 19:00N 37°46' W 122°21'0 0.0
2018-Feb-18 18:30N 37°46' W 122°21'0 0.0
2018-Feb-18 18:01N 37°46' W 122°21'0 0.0
2018-Feb-18 17:30N 37°46' W 122°21'0 0.0
2018-Feb-18 17:00N 37°46' W 122°21'0 0.0
2018-Feb-18 16:30N 37°46' W 122°21'0 0.0
2018-Feb-18 16:01N 37°46' W 122°21'0 0.1
2018-Feb-18 15:31N 37°46' W 122°21'0 0.1
2018-Feb-18 15:01N 37°46' W 122°21'0 0.1
2018-Feb-18 14:30N 37°46' W 122°21'0 0.0
2018-Feb-18 14:01N 37°46' W 122°21'0 0.0
2018-Feb-18 13:30N 37°46' W 122°21'0 0.0
2018-Feb-18 13:01N 37°46' W 122°21'0 0.1
2018-Feb-18 12:31N 37°46' W 122°21'0 0.1
2018-Feb-18 12:00N 37°46' W 122°21'0 0.1
2018-Feb-18 11:31N 37°46' W 122°21'0 0.1
2018-Feb-18 11:00N 37°46' W 122°21'0 0.1
2018-Feb-18 10:30N 37°46' W 122°21'0 0.0
2018-Feb-18 10:00N 37°46' W 122°21'0 0.0
2018-Feb-18 09:30N 37°46' W 122°21'0 0.1
2018-Feb-18 09:01N 37°46' W 122°21'0 0.0
2018-Feb-18 08:30N 37°46' W 122°21'0 0.0
2018-Feb-18 08:00N 37°46' W 122°21'0 0.0
2018-Feb-18 07:30N 37°46' W 122°21'0 0.0
2018-Feb-18 07:00N 37°46' W 122°21'0 0.1
2018-Feb-18 06:30N 37°46' W 122°21'0 0.0
2018-Feb-18 05:57N 37°46' W 122°21'0 0.0
2018-Feb-18 05:30N 37°46' W 122°21'0 0.0
2018-Feb-18 05:00N 37°46' W 122°21'0 0.1
2018-Feb-18 04:30N 37°46' W 122°21'0 0.1
2018-Feb-18 04:00N 37°46' W 122°21'0 0.2
2018-Feb-18 03:30N 37°46' W 122°21'0 0.0
2018-Feb-18 03:00N 37°46' W 122°21'0 0.0
2018-Feb-18 02:30N 37°46' W 122°21'0 0.1
2018-Feb-18 02:01N 37°46' W 122°21'0 0.0
2018-Feb-18 01:31N 37°46' W 122°21'0 0.0
2018-Feb-18 01:00N 37°46' W 122°21'0 0.0
2018-Feb-18 00:31N 37°46' W 122°21'0 0.0
2018-Feb-18 00:00N 37°46' W 122°21'0 0.0
2018-Feb-17 23:30N 37°46' W 122°21'0 0.0
2018-Feb-17 23:00N 37°46' W 122°21'0 0.1
2018-Feb-17 22:30N 37°46' W 122°21'0 0.0
2018-Feb-17 22:00N 37°46' W 122°21'0 0.1
2018-Feb-17 21:30N 37°46' W 122°21'0 0.1
2018-Feb-17 21:00N 37°46' W 122°21'0 0.1
2018-Feb-17 20:30N 37°46' W 122°21'0 0.0
2018-Feb-17 20:00N 37°46' W 122°21'0 0.0
2018-Feb-17 19:30N 37°46' W 122°21'0 0.1
2018-Feb-17 19:00N 37°46' W 122°21'0 0.0
2018-Feb-17 18:27N 37°46' W 122°21'0 0.1
2018-Feb-17 18:00N 37°46' W 122°21'0 0.0
2018-Feb-17 17:30N 37°46' W 122°21'0 0.0
2018-Feb-17 17:00N 37°46' W 122°21'0 0.0
2018-Feb-17 16:30N 37°46' W 122°21'0 0.3
2018-Feb-17 16:00N 37°46' W 122°21'0 0.1
2018-Feb-17 15:30N 37°46' W 122°21'0 0.0
2018-Feb-17 15:00N 37°46' W 122°21'0 0.0
2018-Feb-17 14:30N 37°46' W 122°21'0 0.0
2018-Feb-17 14:00N 37°46' W 122°21'0 0.1
2018-Feb-17 13:30N 37°46' W 122°21'0 0.1
2018-Feb-17 13:00N 37°46' W 122°21'0 0.1
2018-Feb-17 12:30N 37°46' W 122°21'1 1.5
2018-Feb-17 12:00N 37°46' W 122°21'2 4.3
2018-Feb-17 11:30N 37°48' W 122°20'0 0.1
2018-Feb-17 10:59N 37°48' W 122°19'0 0.0
2018-Feb-17 10:29N 37°48' W 122°19'0 0.0
2018-Feb-17 09:59N 37°48' W 122°19'0 0.0
2018-Feb-17 09:29N 37°48' W 122°19'0 0.0
2018-Feb-17 08:59N 37°48' W 122°19'0 0.0
2018-Feb-17 08:29N 37°48' W 122°19'0 0.0
2018-Feb-17 07:59N 37°48' W 122°19'0 0.0
2018-Feb-17 07:29N 37°48' W 122°19'0 0.0
2018-Feb-17 06:59N 37°48' W 122°19'0 0.0
2018-Feb-17 06:29N 37°48' W 122°19'0 0.0
2018-Feb-17 05:59N 37°48' W 122°19'0 0.0
2018-Feb-17 05:29N 37°48' W 122°19'0 0.0
2018-Feb-17 04:59N 37°48' W 122°19'0 0.0
2018-Feb-17 04:29N 37°48' W 122°19'0 0.0
2018-Feb-17 03:59N 37°48' W 122°19'0 0.0
2018-Feb-17 03:29N 37°48' W 122°19'0 0.0
2018-Feb-17 02:59N 37°48' W 122°19'0 0.0
2018-Feb-17 02:29N 37°48' W 122°19'0 0.0
2018-Feb-17 01:59N 37°48' W 122°19'0 0.0
2018-Feb-17 01:29N 37°48' W 122°19'0 0.0
2018-Feb-17 00:59N 37°48' W 122°19'0 0.0
2018-Feb-17 00:29N 37°48' W 122°19'0 0.0
2018-Feb-16 23:56N 37°48' W 122°19'0 0.0
2018-Feb-16 23:29N 37°48' W 122°19'0 0.0
2018-Feb-16 22:59N 37°48' W 122°19'0 0.0
2018-Feb-16 22:29N 37°48' W 122°19'0 0.0
2018-Feb-16 21:59N 37°48' W 122°19'0 0.0
2018-Feb-16 21:29N 37°48' W 122°19'0 0.0
2018-Feb-16 20:59N 37°48' W 122°19'0 0.0
2018-Feb-16 20:29N 37°48' W 122°19'0 0.0
2018-Feb-16 19:59N 37°48' W 122°19'0 0.0
2018-Feb-16 19:29N 37°48' W 122°19'0 0.0
2018-Feb-16 18:59N 37°48' W 122°19'0 0.0
2018-Feb-16 18:29N 37°48' W 122°19'0 0.0
2018-Feb-16 17:59N 37°48' W 122°19'0 0.0
2018-Feb-16 17:29N 37°48' W 122°19'0 0.0
2018-Feb-16 16:59N 37°48' W 122°19'0 0.0
2018-Feb-16 16:29N 37°48' W 122°19'0 0.0
2018-Feb-16 15:59N 37°48' W 122°19'0 0.0
2018-Feb-16 15:29N 37°48' W 122°19'0 0.0
2018-Feb-16 14:59N 37°48' W 122°19'0 0.0
2018-Feb-16 14:29N 37°48' W 122°19'0 0.0
2018-Feb-16 13:59N 37°48' W 122°19'0 0.0
2018-Feb-16 13:29N 37°48' W 122°19'0 0.0
2018-Feb-16 12:59N 37°48' W 122°19'0 0.0
2018-Feb-16 12:29N 37°48' W 122°19'0 0.0
2018-Feb-16 11:59N 37°48' W 122°19'0 0.0
2018-Feb-16 11:29N 37°48' W 122°19'0 0.0
2018-Feb-16 10:59N 37°48' W 122°19'0 0.0
2018-Feb-16 10:29N 37°48' W 122°19'0 0.0
2018-Feb-16 09:59N 37°48' W 122°19'0 0.0
2018-Feb-16 09:29N 37°48' W 122°19'0 0.9
2018-Feb-16 09:00N 37°48' W 122°19'1 2.6
2018-Feb-16 08:30N 37°48' W 122°17'2 4.0
2018-Feb-16 08:00N 37°48' W 122°20'4 8.5
2018-Feb-16 07:30N 37°49' W 122°25'612.9
2018-Feb-16 07:00N 37°47' W 122°33'714.2
2018-Feb-16 06:30N 37°44' W 122°41'4 8.1
2018-Feb-16 06:00N 37°40' W 122°40'5 9.3
2018-Feb-16 05:30N 37°36' W 122°40'713.2
2018-Feb-16 05:00N 37°29' W 122°40'613.0
2018-Feb-16 04:30N 37°23' W 122°40'612.8
2018-Feb-16 04:00N 37°16' W 122°40'510.7
2018-Feb-16 03:30N 37°11' W 122°40'815.7
2018-Feb-16 03:01N 37°03' W 122°36'815.9
2018-Feb-16 02:30N 36°56' W 122°33'815.4
2018-Feb-16 02:00N 36°49' W 122°29'815.4
2018-Feb-16 01:30N 36°42' W 122°25'815.4
2018-Feb-16 01:00N 36°35' W 122°22'8415.9
2018-Feb-15 19:42N 35°21' W 121°32'316.5
2018-Feb-15 19:30N 35°18' W 121°30'816.2
2018-Feb-15 19:00N 35°11' W 121°25'816.4
2018-Feb-15 18:30N 35°04' W 121°20'816.2
2018-Feb-15 18:00N 34°57' W 121°15'816.3
2018-Feb-15 17:30N 34°50' W 121°09'816.5
2018-Feb-15 17:00N 34°43' W 121°04'816.2
2018-Feb-15 16:30N 34°36' W 120°59'815.9
2018-Feb-15 16:00N 34°29' W 120°55'815.2
2018-Feb-15 15:30N 34°25' W 120°47'816.2
2018-Feb-15 14:59N 34°23' W 120°37'916.4
2018-Feb-15 14:27N 34°20' W 120°27'716.0
2018-Feb-15 14:00N 34°19' W 120°19'916.3
2018-Feb-15 13:29N 34°16' W 120°09'713.9
2018-Feb-15 12:58N 34°14' W 120°00'6 9.4
2018-Feb-15 12:21N 34°13' W 119°53'4 9.8
2018-Feb-15 11:57N 34°12' W 119°49'5 9.7
2018-Feb-15 11:29N 34°11' W 119°44'5 9.4
2018-Feb-15 11:00N 34°10' W 119°38'5 9.5
2018-Feb-15 10:30N 34°08' W 119°33'5 9.8
2018-Feb-15 10:00N 34°07' W 119°27'5 9.7
2018-Feb-15 09:27N 34°06' W 119°21'4 9.5
2018-Feb-15 09:00N 34°04' W 119°16'611.0
2018-Feb-15 08:29N 34°02' W 119°10'611.5
2018-Feb-15 08:00N 33°59' W 119°04'611.3
2018-Feb-15 07:29N 33°56' W 118°58'611.8
2018-Feb-15 07:00N 33°53' W 118°52'611.6
2018-Feb-15 06:30N 33°50' W 118°46'611.3
2018-Feb-15 06:00N 33°47' W 118°40'611.2
2018-Feb-15 05:30N 33°45' W 118°34'611.4
2018-Feb-15 05:00N 33°42' W 118°28'611.6
2018-Feb-15 04:30N 33°39' W 118°22'510.9
2018-Feb-15 04:00N 33°38' W 118°16'5 9.3
2018-Feb-15 03:30N 33°41' W 118°11'4 7.3
2018-Feb-15 03:00N 33°45' W 118°13'1 2.2
2018-Feb-15 02:30N 33°45' W 118°14'0 0.0
2018-Feb-15 02:00N 33°45' W 118°14'0 0.0
2018-Feb-15 01:30N 33°45' W 118°14'0 0.0
2018-Feb-15 01:00N 33°45' W 118°14'0 0.0
2018-Feb-15 00:30N 33°45' W 118°14'0 0.0
2018-Feb-15 00:00N 33°45' W 118°14'0 0.0
2018-Feb-14 23:30N 33°45' W 118°14'0 0.0
2018-Feb-14 23:00N 33°45' W 118°14'0 0.0
2018-Feb-14 22:30N 33°45' W 118°14'0 0.0
2018-Feb-14 22:00N 33°45' W 118°14'0 0.0
2018-Feb-14 21:30N 33°45' W 118°14'0 0.0
2018-Feb-14 21:00N 33°45' W 118°14'0 0.0
2018-Feb-14 20:30N 33°45' W 118°14'0 0.0
2018-Feb-14 20:00N 33°45' W 118°14'0 0.0
2018-Feb-14 19:30N 33°45' W 118°14'0 0.0
2018-Feb-14 19:00N 33°45' W 118°14'0 0.0
2018-Feb-14 18:30N 33°45' W 118°14'0 0.0
2018-Feb-14 18:00N 33°45' W 118°14'0 0.0
2018-Feb-14 17:30N 33°45' W 118°14'0 0.0
2018-Feb-14 16:57N 33°45' W 118°14'0 0.0
2018-Feb-14 16:30N 33°45' W 118°14'0 0.0
2018-Feb-14 16:00N 33°45' W 118°14'0 0.0
2018-Feb-14 15:30N 33°45' W 118°14'0 0.0
2018-Feb-14 15:00N 33°45' W 118°14'0 0.0
2018-Feb-14 14:30N 33°45' W 118°14'0 0.0
2018-Feb-14 14:00N 33°45' W 118°14'0 0.0
2018-Feb-14 13:27N 33°45' W 118°14'0 0.0
2018-Feb-14 13:00N 33°45' W 118°14'0 0.0
2018-Feb-14 12:30N 33°45' W 118°14'0 0.0
2018-Feb-14 12:00N 33°45' W 118°14'0 0.0
2018-Feb-14 11:30N 33°45' W 118°14'0 0.0
2018-Feb-14 11:00N 33°45' W 118°14'0 0.0
2018-Feb-14 10:30N 33°45' W 118°14'0 0.0
2018-Feb-14 09:51N 33°45' W 118°14'0 0.0
2018-Feb-14 09:15N 33°45' W 118°14'0 0.0
2018-Feb-14 09:00N 33°45' W 118°14'0 0.0
2018-Feb-14 08:21N 33°45' W 118°14'0 0.0
2018-Feb-14 07:57N 33°45' W 118°14'0 0.0
2018-Feb-14 07:27N 33°45' W 118°14'0 0.0
2018-Feb-14 07:00N 33°45' W 118°14'0 0.0
2018-Feb-14 06:30N 33°45' W 118°14'0 0.0
2018-Feb-14 06:00N 33°45' W 118°14'0 0.0
2018-Feb-14 05:24N 33°45' W 118°14'0 0.0
2018-Feb-14 05:00N 33°45' W 118°14'0 0.0
2018-Feb-14 04:30N 33°45' W 118°14'0 0.0
2018-Feb-14 03:48N 33°45' W 118°14'0 0.0
2018-Feb-14 03:30N 33°45' W 118°14'0 0.0
2018-Feb-14 02:57N 33°45' W 118°14'0 0.0
2018-Feb-14 02:21N 33°45' W 118°14'0 0.0
2018-Feb-14 02:00N 33°45' W 118°14'0 0.0
2018-Feb-14 01:24N 33°45' W 118°14'0 0.0
2018-Feb-14 01:00N 33°45' W 118°14'0 0.0
2018-Feb-14 00:30N 33°45' W 118°14'0 0.0
2018-Feb-13 23:57N 33°45' W 118°14'0 0.0
2018-Feb-13 23:30N 33°45' W 118°14'0 0.0
2018-Feb-13 23:00N 33°45' W 118°14'0 0.0
2018-Feb-13 22:30N 33°45' W 118°14'0 0.0
2018-Feb-13 22:00N 33°45' W 118°14'0 0.0
2018-Feb-13 21:30N 33°45' W 118°14'0 0.0
2018-Feb-13 21:00N 33°45' W 118°14'0 0.0
2018-Feb-13 20:30N 33°45' W 118°14'0 0.1
2018-Feb-13 20:00N 33°45' W 118°14'0 0.1
2018-Feb-13 19:30N 33°45' W 118°14'0 0.1
2018-Feb-13 19:00N 33°45' W 118°14'0 0.1
2018-Feb-13 18:30N 33°45' W 118°14'0 0.0
2018-Feb-13 18:00N 33°45' W 118°14'0 0.0
2018-Feb-13 17:27N 33°45' W 118°14'0 0.0
2018-Feb-13 17:00N 33°45' W 118°14'0 0.0
2018-Feb-13 16:30N 33°45' W 118°14'0 0.0
2018-Feb-13 16:00N 33°45' W 118°14'0 0.0
2018-Feb-13 15:27N 33°45' W 118°14'0 0.0
2018-Feb-13 15:00N 33°45' W 118°14'0 0.0
2018-Feb-13 14:29N 33°45' W 118°14'0 0.0
2018-Feb-13 13:59N 33°45' W 118°14'0 0.0
2018-Feb-13 13:30N 33°45' W 118°14'0 0.5
2018-Feb-13 13:00N 33°45' W 118°14'2 3.2
2018-Feb-13 12:30N 33°44' W 118°12'4 8.1
2018-Feb-13 12:00N 33°40' W 118°11'3 6.0
2018-Feb-13 11:29N 33°37' W 118°10'23 8.3
2018-Feb-13 08:42N 33°15' W 118°01'2 9.2
2018-Feb-13 08:30N 33°14' W 118°00'910.3
2018-Feb-13 07:38N 33°05' W 117°57'213.5
2018-Feb-13 07:30N 33°04' W 117°56'917.1
2018-Feb-13 07:00N 32°56' W 117°51'917.0
2018-Feb-13 06:30N 32°48' W 117°47'917.5
2018-Feb-13 06:00N 32°41' W 117°42'917.4
2018-Feb-13 05:30N 32°33' W 117°38'917.3
2018-Feb-13 05:00N 32°25' W 117°34'  

Dump ship's entire track history